createdAt,value
2018-09-27T00:02:01.983Z,10.40
2018-09-27T00:04:31.064Z,10.10
2018-09-27T00:07:00.152Z,9.90
2018-09-27T00:09:29.296Z,10.00
2018-09-27T00:11:58.351Z,10.00
2018-09-27T00:14:27.452Z,10.20
2018-09-27T00:16:56.536Z,10.10
2018-09-27T00:19:25.662Z,10.10
2018-09-27T00:21:54.791Z,10.20
2018-09-27T00:24:23.823Z,10.20
2018-09-27T00:26:52.775Z,10.20
2018-09-27T00:29:21.921Z,10.30
2018-09-27T00:31:50.994Z,10.30
2018-09-27T00:34:20.229Z,10.00
2018-09-27T00:36:49.167Z,9.80
2018-09-27T00:39:18.164Z,9.40
2018-09-27T00:41:47.195Z,9.40
2018-09-27T00:44:16.175Z,9.20
2018-09-27T00:46:45.171Z,9.40
2018-09-27T00:49:14.128Z,9.50
2018-09-27T00:51:43.249Z,9.60
2018-09-27T00:54:12.242Z,9.60
2018-09-27T00:56:41.200Z,9.70
2018-09-27T00:59:10.253Z,9.70
2018-09-27T01:01:39.217Z,9.80
2018-09-27T01:04:08.424Z,9.80
2018-09-27T01:06:37.503Z,9.80
2018-09-27T01:09:08.272Z,9.80
2018-09-27T01:11:37.391Z,9.50
2018-09-27T01:14:06.413Z,9.50
2018-09-27T01:16:35.504Z,9.50
2018-09-27T01:19:04.731Z,9.50
2018-09-27T01:21:33.927Z,9.60
2018-09-27T01:24:03.035Z,9.60
2018-09-27T01:26:32.108Z,9.60
2018-09-27T01:29:01.103Z,9.60
2018-09-27T01:31:30.176Z,9.60
2018-09-27T01:33:59.191Z,9.60
2018-09-27T01:36:28.228Z,9.50
2018-09-27T01:38:57.254Z,9.40
2018-09-27T01:41:26.263Z,9.40
2018-09-27T01:43:55.256Z,9.30
2018-09-27T01:46:24.343Z,9.20
2018-09-27T01:48:53.484Z,9.20
2018-09-27T01:51:22.536Z,9.10
2018-09-27T01:53:51.636Z,9.20
2018-09-27T01:56:20.738Z,8.90
2018-09-27T01:58:50.139Z,9.00
2018-09-27T02:01:19.284Z,9.10
2018-09-27T02:03:48.504Z,9.10
2018-09-27T02:06:17.508Z,9.10
2018-09-27T02:08:46.587Z,8.90
2018-09-27T02:11:15.684Z,8.70
2018-09-27T02:13:44.829Z,8.30
2018-09-27T02:16:13.882Z,8.20
2018-09-27T02:18:42.968Z,8.20
2018-09-27T02:21:11.958Z,8.30
2018-09-27T02:23:40.946Z,8.30
2018-09-27T02:26:10.001Z,8.30
2018-09-27T02:28:39.060Z,8.40
2018-09-27T02:31:08.009Z,8.50
2018-09-27T02:33:37.014Z,8.40
2018-09-27T02:36:06.116Z,8.50
2018-09-27T02:38:35.248Z,8.50
2018-09-27T02:41:04.309Z,8.50
2018-09-27T02:43:33.396Z,8.50
2018-09-27T02:46:02.492Z,8.40
2018-09-27T02:48:31.582Z,8.40
2018-09-27T02:51:00.833Z,8.50
2018-09-27T02:53:29.776Z,8.30
2018-09-27T02:55:58.757Z,8.30
2018-09-27T02:58:27.970Z,8.20
2018-09-27T03:00:57.088Z,8.30
2018-09-27T03:03:26.203Z,8.30
2018-09-27T03:05:55.258Z,8.20
2018-09-27T03:08:24.224Z,8.20
2018-09-27T03:10:53.552Z,8.10
2018-09-27T03:13:22.709Z,8.00
2018-09-27T03:15:51.931Z,8.00
2018-09-27T03:18:21.291Z,7.90
2018-09-27T03:20:50.363Z,7.90
2018-09-27T03:23:19.328Z,7.90
2018-09-27T03:25:48.317Z,7.80
2018-09-27T03:28:17.467Z,7.80
2018-09-27T03:30:46.504Z,7.70
2018-09-27T03:33:15.624Z,7.60
2018-09-27T03:35:44.579Z,7.60
2018-09-27T03:38:13.792Z,7.40
2018-09-27T03:40:42.981Z,7.50
2018-09-27T03:43:11.988Z,7.40
2018-09-27T03:45:41.087Z,7.30
2018-09-27T03:48:10.176Z,7.30
2018-09-27T03:50:39.344Z,7.30
2018-09-27T03:53:08.500Z,7.10
2018-09-27T03:55:37.540Z,7.10
2018-09-27T03:58:06.562Z,7.20
2018-09-27T04:00:35.719Z,7.30
2018-09-27T04:03:04.902Z,7.40
2018-09-27T04:05:33.974Z,7.40
2018-09-27T04:08:03.001Z,7.30
2018-09-27T04:10:32.110Z,7.30
2018-09-27T04:13:01.323Z,7.20
2018-09-27T04:15:30.430Z,7.10
2018-09-27T04:17:59.560Z,7.10
2018-09-27T04:20:28.696Z,7.20
2018-09-27T04:22:57.819Z,7.10
2018-09-27T04:25:27.004Z,7.00
2018-09-27T04:27:56.204Z,7.10
2018-09-27T04:30:25.242Z,7.10
2018-09-27T04:32:54.809Z,7.00
2018-09-27T04:35:23.899Z,7.00
2018-09-27T04:37:52.990Z,6.90
2018-09-27T04:40:22.108Z,6.90
2018-09-27T04:42:51.220Z,6.60
2018-09-27T04:45:20.379Z,6.50
2018-09-27T04:47:49.580Z,6.60
2018-09-27T04:50:18.663Z,6.60
2018-09-27T04:52:47.768Z,6.70
2018-09-27T04:55:16.787Z,6.70
2018-09-27T04:57:45.959Z,6.70
2018-09-27T05:00:15.032Z,6.70
2018-09-27T05:02:44.349Z,6.80
2018-09-27T05:05:13.548Z,6.80
2018-09-27T05:07:42.782Z,7.00
2018-09-27T05:10:11.839Z,7.10
2018-09-27T05:12:40.921Z,7.10
2018-09-27T05:15:10.152Z,7.20
2018-09-27T05:17:39.234Z,7.20
2018-09-27T05:20:08.332Z,7.30
2018-09-27T05:22:37.401Z,7.20
2018-09-27T05:25:06.598Z,7.30
2018-09-27T05:27:35.627Z,7.20
2018-09-27T05:30:04.906Z,7.20
2018-09-27T05:32:33.719Z,7.20
2018-09-27T05:35:02.503Z,7.20
2018-09-27T05:37:31.584Z,7.20
2018-09-27T05:40:00.347Z,7.10
2018-09-27T05:42:29.458Z,7.20
2018-09-27T05:44:58.608Z,7.20
2018-09-27T05:47:27.613Z,7.30
2018-09-27T05:49:56.795Z,7.30
2018-09-27T05:52:25.742Z,7.30
2018-09-27T05:54:54.721Z,7.30
2018-09-27T05:57:23.785Z,7.30
2018-09-27T05:59:52.913Z,7.30
2018-09-27T06:02:21.885Z,7.30
2018-09-27T06:04:50.997Z,7.30
2018-09-27T06:07:20.107Z,7.30
2018-09-27T06:09:49.201Z,7.30
2018-09-27T06:12:18.182Z,7.30
2018-09-27T06:14:47.188Z,7.30
2018-09-27T06:17:16.162Z,7.30
2018-09-27T06:19:45.264Z,7.30
2018-09-27T06:22:14.508Z,7.30
2018-09-27T06:24:43.649Z,7.30
2018-09-27T06:27:12.731Z,7.20
2018-09-27T06:29:41.764Z,7.30
2018-09-27T06:32:10.761Z,7.30
2018-09-27T06:34:39.876Z,7.30
2018-09-27T06:37:08.917Z,7.40
2018-09-27T06:39:38.016Z,7.40
2018-09-27T06:42:07.102Z,7.50
2018-09-27T06:44:36.181Z,7.50
2018-09-27T06:47:05.231Z,7.50
2018-09-27T06:49:34.395Z,7.50
2018-09-27T06:52:03.400Z,7.60
2018-09-27T06:54:32.474Z,7.60
2018-09-27T06:57:01.581Z,7.70
2018-09-27T06:59:30.581Z,7.70
2018-09-27T07:01:59.661Z,7.70
2018-09-27T07:04:28.756Z,7.80
2018-09-27T07:06:57.822Z,7.80
2018-09-27T07:09:26.880Z,7.80
2018-09-27T07:11:55.931Z,7.90
2018-09-27T07:14:25.065Z,8.00
2018-09-27T07:16:54.133Z,8.00
2018-09-27T07:19:23.214Z,8.00
2018-09-27T07:21:52.334Z,8.10
2018-09-27T07:24:21.455Z,8.10
2018-09-27T07:26:50.760Z,8.20
2018-09-27T07:29:19.793Z,8.20
2018-09-27T07:31:48.905Z,8.20
2018-09-27T07:34:17.996Z,8.30
2018-09-27T07:36:47.024Z,8.40
2018-09-27T07:39:16.084Z,8.50
2018-09-27T07:41:45.056Z,8.50
2018-09-27T07:44:14.055Z,8.60
2018-09-27T07:46:43.147Z,8.60
2018-09-27T07:49:12.385Z,8.70
2018-09-27T07:51:41.567Z,8.70
2018-09-27T07:54:10.676Z,8.80
2018-09-27T07:56:39.763Z,8.90
2018-09-27T07:59:08.938Z,8.90
2018-09-27T08:01:38.047Z,9.00
2018-09-27T08:04:07.151Z,9.10
2018-09-27T08:06:36.106Z,9.20
2018-09-27T08:09:06.641Z,9.20
2018-09-27T08:11:36.025Z,9.30
2018-09-27T08:14:05.184Z,9.30
2018-09-27T08:16:34.236Z,9.50
2018-09-27T08:19:03.333Z,9.50
2018-09-27T08:21:32.410Z,9.60
2018-09-27T08:24:01.415Z,9.70
2018-09-27T08:26:30.594Z,9.80
2018-09-27T08:28:59.725Z,9.80
2018-09-27T08:31:28.794Z,9.90
2018-09-27T08:33:57.896Z,10.00
2018-09-27T08:36:27.000Z,10.00
2018-09-27T08:38:56.237Z,10.10
2018-09-27T08:41:25.397Z,10.20
2018-09-27T08:43:54.484Z,10.20
2018-09-27T08:46:23.584Z,10.30
2018-09-27T08:48:52.773Z,10.40
2018-09-27T08:51:21.976Z,10.40
2018-09-27T08:53:51.093Z,10.50
2018-09-27T08:56:20.229Z,10.50
2018-09-27T08:58:49.280Z,10.60
2018-09-27T09:01:18.355Z,10.70
2018-09-27T09:03:47.488Z,10.70
2018-09-27T09:06:16.545Z,10.80
2018-09-27T09:08:45.648Z,10.90
2018-09-27T09:11:14.737Z,11.00
2018-09-27T09:13:43.858Z,11.00
2018-09-27T09:16:12.968Z,11.00
2018-09-27T09:18:42.124Z,11.10
2018-09-27T09:21:11.341Z,11.20
2018-09-27T09:23:40.427Z,11.20
2018-09-27T09:26:09.465Z,11.30
2018-09-27T09:28:38.597Z,11.40
2018-09-27T09:31:07.905Z,11.50
2018-09-27T09:33:36.944Z,11.60
2018-09-27T09:36:06.054Z,11.70
2018-09-27T09:38:35.107Z,11.80
2018-09-27T09:41:04.216Z,11.80
2018-09-27T09:43:33.164Z,11.90
2018-09-27T09:46:02.312Z,12.00
2018-09-27T09:48:31.279Z,12.10
2018-09-27T09:51:00.252Z,12.20
2018-09-27T09:53:29.360Z,12.30
2018-09-27T09:55:58.360Z,12.40
2018-09-27T09:58:27.360Z,12.50
2018-09-27T10:00:56.349Z,12.60
2018-09-27T10:03:25.335Z,12.80
2018-09-27T10:05:54.319Z,12.80
2018-09-27T10:08:23.416Z,13.00
2018-09-27T10:10:52.500Z,13.00
2018-09-27T10:13:21.583Z,13.10
2018-09-27T10:15:50.870Z,13.20
2018-09-27T10:18:20.246Z,13.30
2018-09-27T10:20:49.300Z,13.30
2018-09-27T10:23:18.381Z,13.50
2018-09-27T10:25:47.369Z,13.60
2018-09-27T10:28:16.369Z,13.80
2018-09-27T10:30:45.400Z,13.80
2018-09-27T10:33:14.438Z,13.90
2018-09-27T10:35:43.554Z,14.10
2018-09-27T10:38:12.541Z,14.20
2018-09-27T10:40:41.632Z,14.30
2018-09-27T10:43:10.873Z,14.50
2018-09-27T10:45:39.952Z,14.70
2018-09-27T10:48:08.930Z,14.70
2018-09-27T10:50:37.921Z,14.80
2018-09-27T10:53:07.685Z,15.00
2018-09-27T10:55:36.892Z,15.20
2018-09-27T10:58:05.501Z,15.40
2018-09-27T11:00:34.520Z,15.50
2018-09-27T11:03:03.693Z,15.70
2018-09-27T11:05:32.723Z,15.80
2018-09-27T11:08:01.730Z,15.90
2018-09-27T11:10:30.772Z,16.30
2018-09-27T11:12:59.740Z,16.40
2018-09-27T11:15:29.064Z,16.40
2018-09-27T11:17:58.155Z,16.60
2018-09-27T11:20:27.281Z,16.50
2018-09-27T11:22:56.972Z,16.70
2018-09-27T11:25:25.953Z,16.90
2018-09-27T11:27:55.072Z,16.90
2018-09-27T11:30:30.967Z,17.00
2018-09-27T11:33:00.068Z,17.10
2018-09-27T11:35:29.163Z,17.40
2018-09-27T11:37:58.342Z,17.60
2018-09-27T11:40:27.484Z,17.70
2018-09-27T11:42:56.690Z,17.90
2018-09-27T11:45:25.791Z,18.00
2018-09-27T11:47:54.863Z,18.10
2018-09-27T11:50:24.189Z,18.20
2018-09-27T11:52:53.260Z,18.40
2018-09-27T11:55:22.359Z,18.50
2018-09-27T11:57:51.456Z,18.60
2018-09-27T12:00:20.478Z,18.80
2018-09-27T12:02:49.775Z,18.80
2018-09-27T12:05:18.837Z,19.00
2018-09-27T12:07:47.828Z,19.10
2018-09-27T12:10:16.916Z,19.20
2018-09-27T12:12:45.977Z,19.30
2018-09-27T12:15:15.169Z,19.40
2018-09-27T12:17:44.411Z,19.50
2018-09-27T12:20:13.503Z,19.60
2018-09-27T12:22:42.616Z,19.80
2018-09-27T12:25:11.701Z,19.90
2018-09-27T12:27:40.783Z,20.00
2018-09-27T12:30:09.781Z,20.20
2018-09-27T12:32:38.775Z,20.30
2018-09-27T12:35:07.877Z,20.40
2018-09-27T12:37:36.979Z,20.50
2018-09-27T12:40:06.300Z,20.70
2018-09-27T12:42:35.422Z,20.80
2018-09-27T12:45:04.529Z,20.90
2018-09-27T12:47:33.582Z,21.10
2018-09-27T12:50:02.551Z,21.20
2018-09-27T12:52:31.814Z,21.30
2018-09-27T12:55:00.867Z,21.40
2018-09-27T12:57:29.815Z,21.50
2018-09-27T12:59:58.930Z,21.70
2018-09-27T13:02:28.126Z,21.80
2018-09-27T13:04:57.269Z,21.80
2018-09-27T13:07:26.421Z,21.90
2018-09-27T13:09:55.633Z,22.00
2018-09-27T13:12:24.776Z,22.10
2018-09-27T13:14:53.859Z,22.20
2018-09-27T13:17:22.950Z,22.20
2018-09-27T13:19:52.016Z,22.30
2018-09-27T13:22:21.119Z,22.40
2018-09-27T13:24:50.224Z,22.50
2018-09-27T13:27:19.385Z,22.50
2018-09-27T13:29:48.633Z,22.50
2018-09-27T13:32:17.868Z,22.70
2018-09-27T13:34:46.989Z,22.70
2018-09-27T13:37:16.170Z,22.80
2018-09-27T13:39:45.269Z,22.90
2018-09-27T13:42:14.287Z,22.90
2018-09-27T13:44:43.334Z,22.90
2018-09-27T13:47:12.541Z,23.00
2018-09-27T13:49:41.720Z,23.10
2018-09-27T13:52:10.829Z,23.10
2018-09-27T13:54:39.880Z,23.20
2018-09-27T13:57:08.952Z,23.20
2018-09-27T13:59:38.012Z,23.30
2018-09-27T14:02:07.126Z,23.30
2018-09-27T14:04:36.372Z,23.30
2018-09-27T14:07:04.454Z,23.40
2018-09-27T14:09:32.722Z,23.40
2018-09-27T14:12:01.864Z,23.50
2018-09-27T14:14:30.117Z,23.50
2018-09-27T14:16:58.225Z,23.50
2018-09-27T14:19:27.340Z,23.60
2018-09-27T14:21:55.635Z,23.60
2018-09-27T14:24:23.951Z,23.60
2018-09-27T14:26:52.080Z,23.60
2018-09-27T14:29:20.243Z,23.70
2018-09-27T14:31:48.345Z,23.70
2018-09-27T14:34:17.379Z,23.70
2018-09-27T14:36:46.367Z,23.70
2018-09-27T14:39:15.450Z,23.80
2018-09-27T14:41:44.461Z,23.80
2018-09-27T14:44:13.449Z,23.80
2018-09-27T14:46:42.495Z,23.80
2018-09-27T14:49:11.540Z,23.80
2018-09-27T14:51:40.500Z,23.80
2018-09-27T14:54:09.513Z,23.90
2018-09-27T14:56:38.771Z,23.90
2018-09-27T14:59:08.007Z,23.90
2018-09-27T15:01:36.982Z,23.90
2018-09-27T15:04:06.504Z,23.90
2018-09-27T15:06:35.579Z,23.90
2018-09-27T15:09:06.365Z,23.90
2018-09-27T15:11:35.542Z,23.80
2018-09-27T15:14:03.652Z,23.90
2018-09-27T15:16:31.705Z,23.80
2018-09-27T15:18:59.795Z,23.80
2018-09-27T15:21:28.105Z,23.80
2018-09-27T15:23:56.342Z,23.70
2018-09-27T15:26:24.514Z,23.70
2018-09-27T15:28:52.847Z,23.70
2018-09-27T15:31:21.926Z,23.60
2018-09-27T15:33:51.193Z,23.60
2018-09-27T15:36:20.385Z,23.60
2018-09-27T15:38:49.527Z,23.60
2018-09-27T15:41:18.712Z,23.60
2018-09-27T15:43:47.820Z,23.60
2018-09-27T15:46:16.952Z,23.50
2018-09-27T15:48:46.215Z,23.50
2018-09-27T15:51:15.301Z,23.40
2018-09-27T15:53:44.296Z,23.30
2018-09-27T15:56:13.567Z,23.30
2018-09-27T15:58:42.986Z,23.20
2018-09-27T16:01:11.956Z,23.10
2018-09-27T16:03:40.970Z,23.00
2018-09-27T16:06:10.185Z,23.10
2018-09-27T16:08:40.335Z,22.90
2018-09-27T16:11:09.522Z,22.80
2018-09-27T16:13:38.598Z,22.70
2018-09-27T16:16:07.906Z,22.70
2018-09-27T16:18:36.125Z,22.60
2018-09-27T16:21:04.216Z,22.50
2018-09-27T16:23:32.498Z,22.50
2018-09-27T16:26:00.672Z,22.40
2018-09-27T16:28:28.811Z,22.30
2018-09-27T16:30:57.087Z,22.20
2018-09-27T16:33:26.343Z,22.10
2018-09-27T16:35:55.543Z,22.10
2018-09-27T16:38:24.721Z,22.00
2018-09-27T16:40:53.882Z,21.90
2018-09-27T16:43:22.046Z,21.90
2018-09-27T16:45:51.090Z,21.70
2018-09-27T16:48:19.317Z,21.60
2018-09-27T16:50:47.463Z,21.50
2018-09-27T16:53:15.661Z,21.50
2018-09-27T16:55:44.804Z,21.50
2018-09-27T16:58:13.898Z,21.40
2018-09-27T17:00:43.170Z,21.30
2018-09-27T17:03:12.189Z,21.30
2018-09-27T17:05:41.198Z,21.20
2018-09-27T17:08:10.267Z,21.20
2018-09-27T17:10:39.466Z,21.10
2018-09-27T17:13:08.657Z,21.00
2018-09-27T17:15:37.882Z,21.00
2018-09-27T17:18:07.159Z,21.00
2018-09-27T17:20:36.382Z,20.90
2018-09-27T17:23:05.538Z,20.80
2018-09-27T17:25:34.693Z,20.70
2018-09-27T17:28:03.783Z,20.60
2018-09-27T17:30:32.850Z,20.60
2018-09-27T17:33:01.866Z,20.40
2018-09-27T17:41:36.641Z,20.00
2018-09-27T17:44:05.630Z,20.00
2018-09-27T17:46:34.814Z,20.00
2018-09-27T17:49:05.264Z,20.00
2018-09-27T17:51:34.288Z,20.00
2018-09-27T17:54:03.733Z,19.80
2018-09-27T17:56:33.913Z,19.80
2018-09-27T17:59:03.823Z,19.50
2018-09-27T18:01:32.655Z,19.30
2018-09-27T18:04:02.336Z,19.30
2018-09-27T18:06:32.620Z,19.20
2018-09-27T18:09:02.041Z,19.10
2018-09-27T18:11:32.194Z,19.20
2018-09-27T18:16:24.359Z,19.10
2018-09-27T18:18:53.749Z,19.00
2018-09-27T18:21:22.849Z,18.80
2018-09-27T18:23:51.986Z,18.90
2018-09-27T18:26:21.074Z,18.70
2018-09-27T18:28:50.168Z,18.70
2018-09-27T18:31:19.211Z,18.60
2018-09-27T18:33:48.186Z,18.50
2018-09-27T18:36:17.136Z,18.50
2018-09-27T18:38:46.274Z,18.40
2018-09-27T18:41:15.343Z,18.50
2018-09-27T18:43:44.508Z,18.60
2018-09-27T18:46:13.612Z,18.50
2018-09-27T18:48:42.668Z,18.60
2018-09-27T18:51:11.630Z,18.60
2018-09-27T18:53:40.935Z,18.60
2018-09-27T18:56:10.004Z,18.60
2018-09-27T18:58:39.093Z,18.50
2018-09-27T19:01:08.147Z,18.50
2018-09-27T19:03:37.233Z,18.40
2018-09-27T19:06:06.376Z,18.40
2018-09-27T19:08:35.508Z,18.40
2018-09-27T19:11:04.630Z,18.20
2018-09-27T19:13:33.788Z,17.90
2018-09-27T19:16:02.873Z,17.70
2018-09-27T19:18:31.840Z,17.70
2018-09-27T19:21:00.969Z,17.70
2018-09-27T19:23:30.128Z,17.80
2018-09-27T19:25:59.228Z,17.70
2018-09-27T19:30:31.547Z,17.50
2018-09-27T19:33:00.648Z,17.60
2018-09-27T19:35:29.647Z,17.70
2018-09-27T19:37:58.707Z,17.70
2018-09-27T19:40:27.834Z,17.70
2018-09-27T19:42:56.907Z,17.60
2018-09-27T19:45:26.012Z,17.50
2018-09-27T19:47:55.089Z,17.50
2018-09-27T19:50:24.246Z,17.40
2018-09-27T19:52:53.379Z,17.30
2018-09-27T19:55:22.488Z,17.30
2018-09-27T19:57:51.567Z,17.10
2018-09-27T20:00:20.751Z,17.10
2018-09-27T20:02:49.910Z,16.90
2018-09-27T20:05:18.988Z,16.80
2018-09-27T20:07:48.067Z,16.90
2018-09-27T20:10:17.156Z,16.80
2018-09-27T20:12:46.258Z,16.80
2018-09-27T20:15:15.397Z,16.80
2018-09-27T20:17:44.528Z,16.80
2018-09-27T20:20:13.737Z,16.70
2018-09-27T20:22:42.824Z,16.70
2018-09-27T20:25:11.816Z,16.60
2018-09-27T20:27:40.836Z,16.60
2018-09-27T20:30:09.897Z,16.50
2018-09-27T20:32:39.007Z,16.40
2018-09-27T20:35:08.105Z,16.30
2018-09-27T20:37:37.102Z,16.10
2018-09-27T20:40:06.239Z,16.10
2018-09-27T20:42:35.276Z,15.90
2018-09-27T20:45:04.459Z,15.90
2018-09-27T20:47:33.723Z,15.70
2018-09-27T20:50:02.651Z,15.70
2018-09-27T20:52:31.792Z,15.80
2018-09-27T20:55:00.755Z,15.80
2018-09-27T20:57:29.846Z,15.90
2018-09-27T20:59:58.916Z,15.80
2018-09-27T21:02:28.040Z,15.80
2018-09-27T21:04:57.159Z,15.70
2018-09-27T21:07:26.348Z,15.70
2018-09-27T21:09:55.432Z,15.60
2018-09-27T21:12:24.408Z,15.60
2018-09-27T21:14:53.405Z,15.50
2018-09-27T21:17:22.528Z,15.60
2018-09-27T21:19:51.676Z,15.40
2018-09-27T21:22:20.787Z,15.30
2018-09-27T21:24:49.892Z,15.20
2018-09-27T21:27:18.925Z,15.10
2018-09-27T21:29:47.972Z,15.10
2018-09-27T21:32:17.049Z,15.10
2018-09-27T21:34:46.215Z,15.10
2018-09-27T21:37:15.449Z,15.00
2018-09-27T21:39:44.762Z,15.00
2018-09-27T21:42:13.859Z,14.90
2018-09-27T21:44:42.941Z,15.00
2018-09-27T21:47:11.943Z,14.80
2018-09-27T21:49:41.075Z,14.60
2018-09-27T21:52:10.150Z,14.60
2018-09-27T21:54:39.241Z,14.60
2018-09-27T21:57:08.328Z,14.40
2018-09-27T21:59:37.421Z,14.50
2018-09-27T22:02:06.677Z,14.60
2018-09-27T22:04:35.922Z,14.60
2018-09-27T22:07:05.007Z,14.70
2018-09-27T22:09:33.984Z,14.70
2018-09-27T22:12:03.000Z,14.60
2018-09-27T22:14:32.018Z,14.60
2018-09-27T22:17:01.000Z,14.60
2018-09-27T22:19:29.969Z,14.50
2018-09-27T22:21:58.968Z,14.40
2018-09-27T22:24:28.047Z,14.10
2018-09-27T22:26:57.145Z,14.20
2018-09-27T22:29:26.148Z,14.20
2018-09-27T22:31:55.131Z,14.20
2018-09-27T22:34:24.224Z,14.20
2018-09-27T22:36:53.323Z,13.90
2018-09-27T22:39:22.323Z,13.90
2018-09-27T22:41:51.403Z,13.80
2018-09-27T22:44:20.494Z,13.80
2018-09-27T22:46:49.600Z,13.70
2018-09-27T22:49:18.593Z,13.70
2018-09-27T22:51:47.705Z,13.80
2018-09-27T22:54:16.675Z,13.90
2018-09-27T22:56:45.663Z,13.80
2018-09-27T22:59:14.663Z,13.90
2018-09-27T23:01:43.633Z,13.90
2018-09-27T23:04:12.664Z,13.90
2018-09-27T23:06:41.672Z,13.80
2018-09-27T23:09:10.724Z,13.80
2018-09-27T23:11:39.839Z,13.80
2018-09-27T23:14:08.960Z,13.90
2018-09-27T23:16:38.021Z,13.80
2018-09-27T23:19:07.282Z,13.70
2018-09-27T23:21:36.297Z,13.60
2018-09-27T23:24:05.406Z,13.60
2018-09-27T23:26:34.432Z,13.60
2018-09-27T23:29:03.487Z,13.60
2018-09-27T23:31:32.592Z,13.50
2018-09-27T23:34:01.684Z,13.50
2018-09-27T23:36:30.776Z,13.40
2018-09-27T23:38:59.744Z,13.20
2018-09-27T23:41:28.764Z,13.00
2018-09-27T23:43:57.868Z,12.90
2018-09-27T23:46:26.948Z,12.90
2018-09-27T23:48:56.056Z,12.90
2018-09-27T23:51:25.135Z,12.90
2018-09-27T23:53:54.121Z,12.80
2018-09-27T23:56:23.108Z,12.70
2018-09-27T23:58:52.139Z,12.60
